Weather reports worldwide

Advertisment
Torrox, Spain (8484): temperature & dewpoint: 09.12.2019 00:00:00 - 15.12.2019 00:00:00 (CET)Torrox, Spain (8484): wind speed & gusts: 09.12.2019 00:00:00 - 15.12.2019 00:00:00 (CET)Torrox, Spain (8484): wind direction: 09.12.2019 00:00:00 - 15.12.2019 00:00:00 (CET)Torrox, Spain (8484): reduced air pressure: 09.12.2019 00:00:00 - 15.12.2019 00:00:00 (CET)Torrox, Spain (8484): precipitation: 09.12.2019 00:00:00 - 15.12.2019 00:00:00 (CET)
Date & Time tt [°C] td [°C] ff [km/h] ff [kn] fx [km/h] fx [kn] dd ppp [hPa] rr [mm]
15.12.2019 00:00:00 - - - - - - - - -
14.12.2019 23:00:00 12,4 7,3 6 4 - - N 1017,9 -
14.12.2019 22:00:00 13,8 8,0 10 6 14 8 NNE 1017,6 0,0
14.12.2019 21:00:00 - - - - - - - - -
14.12.2019 20:00:00 13,9 9,3 7 4 10 6 NE 1017,3 0,0
14.12.2019 19:00:00 - - - - - - - - -
14.12.2019 18:00:00 16,4 12,7 1 0 - - ENE 1017,0 -
14.12.2019 17:00:00 - - - - - - - - -
14.12.2019 16:00:00 18,9 12,2 10 6 22 12 WNW 1016,6 0,0
14.12.2019 15:00:00 19,3 11,8 14 8 21 11 WNW 1016,7 0,0
14.12.2019 14:00:00 - - - - - - - - -
14.12.2019 13:00:00 18,8 11,6 5 3 6 3 SSE 1017,9 -
14.12.2019 12:00:00 19,2 10,5 5 3 8 4 SSW 1018,7 0,0
14.12.2019 11:00:00 19,2 12,0 2 1 9 5 SE 1018,9 0,0
14.12.2019 10:00:00 16,6 8,5 5 3 15 8 NNE 1018,3 0,0
14.12.2019 09:00:00 12,2 6,4 5 3 12 6 NE 1017,7 0,0
14.12.2019 08:00:00 11,7 5,9 7 4 12 6 N 1017,2 0,0
14.12.2019 07:00:00 - - - - - - - - -
14.12.2019 06:00:00 14,0 9,0 7 4 11 6 ESE 1016,7 0,0
14.12.2019 05:00:00 12,8 5,9 5 3 13 7 N 1016,9 0,0
14.12.2019 04:00:00 - - - - - - - - -
14.12.2019 03:00:00 13,0 6,4 11 6 - - N 1017,9 -
14.12.2019 02:00:00 14,3 7,3 6 3 18 10 NNW 1018,1 0,0
14.12.2019 01:00:00 - - - - - - - - -
14.12.2019 00:00:00 14,0 7,7 3 2 24 13 WNW 1019,0 0,0
13.12.2019 23:00:00 16,4 9,8 9 5 29 16 W 1019,4 0,0
13.12.2019 22:00:00 17,0 10,4 23 12 44 24 WNW 1018,9 0,0
13.12.2019 21:00:00 19,1 8,1 14 7 31 17 NW 1018,5 0,0
13.12.2019 20:00:00 19,1 8,1 9 5 36 19 NW 1019,0 0,0
13.12.2019 19:00:00 18,1 9,9 23 13 37 20 WNW 1018,7 -
13.12.2019 18:00:00 - - - - - - - - -
13.12.2019 17:00:00 19,7 8,7 26 14 61 33 NW 1018,5 0,0
13.12.2019 16:00:00 19,8 9,9 32 18 - - WNW 1018,3 -
13.12.2019 15:00:00 - - - - - - - - -
13.12.2019 14:00:00 18,3 12,3 48 26 - - WNW 1020,1 -
13.12.2019 13:00:00 18,1 12,1 46 25 61 33 WNW 1021,4 -
13.12.2019 12:00:00 18,3 11,6 45 24 61 33 W 1021,7 0,0
13.12.2019 11:00:00 18,2 12,2 40 21 60 32 W 1021,5 0,0
13.12.2019 10:00:00 17,1 11,6 24 13 45 25 WNW 1020,6 0,0
13.12.2019 09:00:00 16,6 12,5 28 15 57 31 WNW 1019,9 0,0
13.12.2019 08:00:00 16,5 12,8 46 25 59 32 WNW 1019,1 0,0
13.12.2019 07:00:00 16,6 12,5 37 20 50 27 WNW 1019,4 -
13.12.2019 06:00:00 - - - - - - - - -
13.12.2019 05:00:00 - - - - - - - - -
13.12.2019 04:00:00 - - - - - - - - -
13.12.2019 03:00:00 - - - - - - - - -
13.12.2019 02:00:00 - - - - - - - - -
13.12.2019 01:00:00 - - - - - - - - -
13.12.2019 00:00:00 15,5 11,1 34 18 53 29 WNW 1020,7 0,0
12.12.2019 23:00:00 - - - - - - - - -
12.12.2019 22:00:00 15,4 10,2 43 23 - - W 1021,0 -
12.12.2019 21:00:00 15,4 9,6 43 23 - - WNW 1020,9 -
12.12.2019 20:00:00 15,4 9,0 41 22 51 28 WNW 1021,5 0,0
12.12.2019 19:00:00 15,2 8,7 38 20 46 25 WNW 1021,8 -
12.12.2019 18:00:00 15,3 6,5 24 13 47 25 WNW 1021,8 0,0
12.12.2019 17:00:00 15,7 6,7 30 16 55 30 WNW 1022,3 0,0
12.12.2019 16:00:00 16,7 8,1 41 22 57 31 W 1022,1 0,0
12.12.2019 15:00:00 17,7 3,9 25 13 50 27 NW 1021,8 0,0
12.12.2019 14:00:00 18,3 5,5 11 6 29 15 ESE 1021,6 0,0
12.12.2019 13:00:00 19,7 5,0 14 8 27 15 WNW 1022,1 -
12.12.2019 12:00:00 20,0 7,0 8 4 27 15 WNW 1023,3 0,0
12.12.2019 11:00:00 16,8 6,2 10 6 - - WNW 1023,0 -
12.12.2019 10:00:00 - - - - - - - - -
12.12.2019 09:00:00 10,9 1,7 8 4 16 9 N 1023,0 0,0
12.12.2019 08:00:00 11,7 1,9 9 5 13 7 N 1022,8 0,0
12.12.2019 07:00:00 11,4 1,1 5 3 8 4 N 1022,9 -
12.12.2019 06:00:00 12,5 0,2 6 4 11 6 N 1023,0 0,0
12.12.2019 05:00:00 12,1 0,9 5 3 - - NNW 1023,2 -
12.12.2019 04:00:00 11,1 1,1 12 7 16 9 NNE 1023,5 0,0
12.12.2019 03:00:00 11,6 2,3 12 6 16 9 N 1023,7 0,0
12.12.2019 02:00:00 11,6 2,7 7 4 - - N 1023,5 -
12.12.2019 01:00:00 12,9 4,3 4 2 17 9 N 1023,7 -
12.12.2019 00:00:00 14,4 5,8 8 5 16 9 WNW 1023,8 0,0
11.12.2019 23:00:00 15,7 5,3 8 4 36 19 NNW 1023,0 0,0
11.12.2019 22:00:00 15,1 7,8 13 7 24 13 WNW 1022,8 0,0
11.12.2019 21:00:00 - - - - - - - - -
11.12.2019 20:00:00 16,4 7,3 21 12 43 23 WNW 1023,0 0,0
11.12.2019 19:00:00 - - - - - - - - -
11.12.2019 18:00:00 17,8 9,9 21 12 40 21 WNW 1022,5 0,0
11.12.2019 17:00:00 - - - - - - - - -
11.12.2019 16:00:00 19,6 8,3 34 19 50 27 WNW 1021,1 0,0
11.12.2019 15:00:00 20,4 5,9 36 19 51 28 WNW 1020,9 0,0
11.12.2019 14:00:00 22,1 4,1 33 18 52 28 WNW 1020,9 0,0
11.12.2019 13:00:00 20,9 6,4 41 22 49 27 WNW 1021,4 -
11.12.2019 12:00:00 19,5 10,5 31 17 46 25 W 1021,8 0,0
11.12.2019 11:00:00 17,7 11,7 37 20 45 25 W 1022,6 0,0
11.12.2019 10:00:00 17,4 10,8 30 16 38 20 W 1022,5 0,0
11.12.2019 09:00:00 14,5 3,2 9 5 16 8 NNW 1022,3 0,0
11.12.2019 08:00:00 11,7 2,1 10 6 17 9 NNE 1022,2 0,0
11.12.2019 07:00:00 11,2 3,4 10 5 20 11 NNE 1021,9 -
11.12.2019 06:00:00 10,3 4,3 8 4 - - N 1021,9 -
11.12.2019 05:00:00 - - - - - - - - -
11.12.2019 04:00:00 - - - - - - - - -
11.12.2019 03:00:00 11,0 4,6 7 4 - - N 1023,0 -
11.12.2019 02:00:00 - - - - - - - - -
11.12.2019 01:00:00 11,4 6,4 5 3 13 7 N 1023,9 -
11.12.2019 00:00:00 11,8 7,3 9 5 14 7 NNE 1024,3 0,0
10.12.2019 23:00:00 11,6 7,8 10 5 11 6 NNE 1024,4 0,0
10.12.2019 22:00:00 - - - - - - - - -
10.12.2019 21:00:00 - - - - - - - - -
10.12.2019 20:00:00 - - - - - - - - -
10.12.2019 19:00:00 - - - - - - - - -
10.12.2019 18:00:00 16,1 12,8 9 5 14 7 WNW 1024,7 0,0
10.12.2019 17:00:00 17,6 13,4 10 6 14 8 W 1024,8 0,0
10.12.2019 16:00:00 18,5 13,0 11 6 - - W 1024,5 -
10.12.2019 15:00:00 20,9 13,9 3 2 8 4 WSW 1024,8 0,0
10.12.2019 14:00:00 21,2 13,2 6 3 11 6 WSW 1025,6 0,0
10.12.2019 13:00:00 21,0 10,8 7 4 9 5 W 1026,4 -
10.12.2019 12:00:00 20,9 10,4 6 3 8 5 WSW 1027,4 0,0
10.12.2019 11:00:00 20,0 10,6 3 2 8 5 SSW 1027,8 0,0
10.12.2019 10:00:00 18,0 10,9 4 2 10 5 E 1027,0 0,0
10.12.2019 09:00:00 - - - - - - - - -
10.12.2019 08:00:00 11,3 4,5 11 6 15 8 NNE 1026,6 0,0
10.12.2019 07:00:00 - - - - - - - - -
10.12.2019 06:00:00 11,7 5,1 6 4 12 7 NE 1026,0 0,0
10.12.2019 05:00:00 - - - - - - - - -
10.12.2019 04:00:00 13,5 6,5 3 2 11 6 N 1026,3 0,0
10.12.2019 03:00:00 13,8 8,3 5 3 11 6 NNE 1026,4 0,0
10.12.2019 02:00:00 14,2 8,7 9 5 12 6 NNE 1026,7 0,0
10.12.2019 01:00:00 - - - - - - - - -
10.12.2019 00:00:00 - - - - - - - - -
09.12.2019 23:00:00 14,1 10,3 4 2 - - NNW 1027,1 -
09.12.2019 22:00:00 14,1 8,9 8 4 11 6 N 1026,8 0,0
09.12.2019 21:00:00 14,1 9,9 6 4 12 6 NNE 1026,7 0,0
09.12.2019 20:00:00 14,1 11,1 7 4 12 6 NNE 1026,5 0,0
09.12.2019 19:00:00 14,9 13,3 4 2 8 4 N 1026,5 -
09.12.2019 18:00:00 17,1 14,3 8 4 9 5 WSW 1026,0 0,0
09.12.2019 17:00:00 18,3 13,9 2 1 10 6 ESE 1026,1 0,0
09.12.2019 16:00:00 19,4 12,2 5 3 7 4 ESE 1025,9 0,0
09.12.2019 15:00:00 19,6 13,1 3 1 - - ESE 1026,2 -
09.12.2019 14:00:00 18,9 11,9 3 2 6 3 SSE 1026,4 0,0
09.12.2019 13:00:00 19,3 13,1 4 2 7 4 ESE 1027,0 -
09.12.2019 12:00:00 18,2 13,7 6 3 13 7 ESE 1027,5 0,0
09.12.2019 11:00:00 18,6 13,1 4 2 - - SSE 1027,3 -
09.12.2019 10:00:00 19,3 13,7 3 2 11 6 ESE 1026,7 0,0
09.12.2019 09:00:00 16,4 11,1 9 5 19 10 WNW 1025,9 0,0
09.12.2019 08:00:00 - - - - - - - - -
09.12.2019 07:00:00 - - - - - - - - -
09.12.2019 06:00:00 - - - - - - - - -
09.12.2019 05:00:00 17,0 10,6 5 3 23 13 NW 1023,9 0,0
09.12.2019 04:00:00 - - - - - - - - -
09.12.2019 03:00:00 18,5 9,0 6 3 22 12 NW 1024,3 0,0
09.12.2019 02:00:00 - - - - - - - - -
09.12.2019 01:00:00 18,6 9,0 6 3 22 12 N 1024,4 -
09.12.2019 00:00:00 16,7 11,4 11 6 19 10 WNW 1024,4 0,0

tt = temperature
td = dewpoint
ff = wind speed
fx = gusts
dd = wind direction
ppp = reduced air pressure
rr = precipitation

Next stations